Time;durP1;ratioP1;P1;durP2;ratioP2;P2;SDS_P1;SDS_P2;PMS_P1;PMS_P2;Temp;Humidity;BMP_temperature;BMP_pressure;BME280_temperature;BME280_humidity;BME280_pressure;Samples;Min_cycle;Max_cycle;Signal;HPM_P1;HPM_P2
2020/12/31 00:00:56;;;;;;;8.38;7.88;;;;;;;7.12;64.13;100248.41;5050664;28;20029;-85
2020/12/31 00:03:21;;;;;;;11.70;10.80;;;;;;;7.16;63.91;100244.28;5032324;28;20045;-86
2020/12/31 00:05:47;;;;;;;8.95;8.40;;;;;;;7.32;63.79;100256.78;5032878;28;20648;-86
2020/12/31 00:08:12;;;;;;;12.00;11.43;;;;;;;7.29;63.89;100242.78;5032126;28;20078;-85
2020/12/31 00:10:37;;;;;;;6.85;6.55;;;;;;;7.37;63.66;100234.56;5047380;28;20033;-84
2020/12/31 00:13:03;;;;;;;7.43;7.03;;;;;;;7.47;63.20;100243.19;5048430;28;21401;-87
2020/12/31 00:15:28;;;;;;;10.90;10.30;;;;;;;7.47;63.39;100239.66;5050779;28;20051;-85
2020/12/31 00:17:54;;;;;;;10.75;10.23;;;;;;;7.52;63.51;100237.22;5053407;28;20043;-84
2020/12/31 00:20:19;;;;;;;15.00;14.10;;;;;;;7.60;63.40;100252.50;5050776;28;20032;-84
2020/12/31 00:22:45;;;;;;;10.15;9.30;;;;;;;7.64;63.50;100251.09;5046583;28;20029;-85
2020/12/31 00:25:11;;;;;;;11.57;10.88;;;;;;;7.60;63.33;100236.25;5047438;28;20490;-86
2020/12/31 00:27:37;;;;;;;9.75;9.32;;;;;;;7.68;63.58;100244.28;5050887;28;20033;-86
2020/12/31 00:30:10;;;;;;;9.88;9.38;;;;;;;7.73;63.74;100235.56;5048680;28;20083;-84
2020/12/31 00:32:36;;;;;;;7.88;7.47;;;;;;;7.72;63.61;100232.00;5047355;28;20155;-86
2020/12/31 00:35:04;;;;;;;8.90;8.50;;;;;;;7.74;63.49;100231.81;5046698;28;20483;-86
2020/12/31 00:37:35;;;;;;;6.60;6.30;;;;;;;7.83;63.77;100239.63;5046596;28;20027;-86
2020/12/31 00:40:03;;;;;;;8.35;7.50;;;;;;;7.83;63.69;100239.63;5046045;28;20107;-86
2020/12/31 00:42:29;;;;;;;6.55;6.05;;;;;;;7.86;63.36;100233.84;5049739;28;20106;-85
2020/12/31 00:44:54;;;;;;;4.78;4.45;;;;;;;7.93;63.49;100238.47;5050648;28;20037;-86
2020/12/31 00:47:20;;;;;;;8.32;7.90;;;;;;;7.91;63.71;100235.09;5049347;28;20029;-86
2020/12/31 00:49:45;;;;;;;9.85;9.25;;;;;;;7.91;63.70;100229.69;5049547;28;20025;-86
2020/12/31 00:52:10;;;;;;;7.50;7.03;;;;;;;7.97;63.62;100234.31;5046476;28;20037;-85
2020/12/31 00:54:36;;;;;;;10.32;9.63;;;;;;;7.97;63.53;100235.19;5048416;28;20049;-85
2020/12/31 00:57:01;;;;;;;10.27;9.68;;;;;;;7.95;63.52;100239.09;5048012;28;20045;-85
2020/12/31 00:59:26;;;;;;;6.18;5.70;;;;;;;7.92;63.70;100225.97;5013825;28;20486;-85
2020/12/31 01:01:52;;;;;;;7.13;6.63;;;;;;;7.97;63.71;100234.31;5026827;28;20033;-85
2020/12/31 01:04:17;;;;;;;9.68;9.05;;;;;;;8.00;63.48;100233.94;5049307;28;20482;-85
2020/12/31 01:06:43;;;;;;;9.05;8.45;;;;;;;8.00;63.51;100234.78;5047747;28;20036;-86
2020/12/31 01:09:09;;;;;;;10.73;10.05;;;;;;;7.95;63.48;100231.81;5031629;28;20033;-85
2020/12/31 01:11:39;;;;;;;10.10;9.55;;;;;;;7.96;63.71;100233.50;5031794;28;20025;-84
2020/12/31 01:14:06;;;;;;;4.83;4.43;;;;;;;8.02;63.83;100231.88;5049501;28;20095;-85
2020/12/31 01:16:32;;;;;;;8.13;7.63;;;;;;;7.96;63.72;100235.38;5048162;28;20282;-85
2020/12/31 01:18:57;;;;;;;6.35;5.85;;;;;;;7.91;63.95;100237.81;5048712;28;20076;-84
2020/12/31 01:21:22;;;;;;;4.53;4.13;;;;;;;7.92;64.02;100237.63;5048523;28;20650;-83
2020/12/31 01:23:48;;;;;;;9.70;9.07;;;;;;;7.89;64.06;100236.16;5046656;28;20486;-84
2020/12/31 01:26:13;;;;;;;6.75;5.88;;;;;;;7.89;64.26;100238.84;5048630;28;20047;-86
2020/12/31 01:28:39;;;;;;;6.95;6.38;;;;;;;7.81;64.73;100235.44;5029283;28;20479;-85
2020/12/31 01:31:08;;;;;;;5.80;5.10;;;;;;;7.76;64.70;100227.91;5050058;28;20064;-86
2020/12/31 01:33:35;;;;;;;7.28;6.60;;;;;;;7.86;64.53;100241.09;5047576;28;20046;-87
2020/12/31 01:36:06;;;;;;;7.07;6.57;;;;;;;7.91;64.47;100237.81;5051628;28;20040;-86
2020/12/31 01:38:32;;;;;;;4.75;4.45;;;;;;;7.88;64.40;100250.72;5031387;28;20029;-87
2020/12/31 01:40:57;;;;;;;6.93;6.35;;;;;;;7.76;64.37;100232.47;5035801;28;20552;-90
2020/12/31 01:43:22;;;;;;;10.25;9.60;;;;;;;7.72;64.09;100229.31;5030915;28;20036;-86
2020/12/31 01:45:48;;;;;;;7.75;7.20;;;;;;;7.82;63.77;100237.94;5015373;28;20021;-87
2020/12/31 01:48:13;;;;;;;8.57;8.10;;;;;;;7.77;63.65;100226.88;5013833;28;20047;-88
2020/12/31 01:50:39;;;;;;;6.95;6.55;;;;;;;7.77;63.70;100245.81;5049199;28;20031;-87
2020/12/31 01:53:04;;;;;;;6.22;5.63;;;;;;;7.71;63.92;100228.47;5033171;28;20029;-88
2020/12/31 01:55:31;;;;;;;9.88;9.20;;;;;;;7.77;63.77;100228.72;5033248;28;20099;-88
2020/12/31 01:57:56;;;;;;;8.15;7.68;;;;;;;7.74;63.66;100226.41;5028509;28;20060;-87
2020/12/31 02:00:22;;;;;;;6.13;5.70;;;;;;;7.71;63.56;100230.34;5047587;28;20049;-86
2020/12/31 02:02:47;;;;;;;10.68;10.13;;;;;;;7.68;63.75;100225.31;5014765;28;20035;-86
2020/12/31 02:05:13;;;;;;;15.02;14.15;;;;;;;7.68;63.76;100225.31;5028663;28;20053;-87
2020/12/31 02:07:38;;;;;;;6.72;6.32;;;;;;;7.66;63.73;100221.94;5015724;28;20124;-88
2020/12/31 02:10:04;;;;;;;7.20;6.80;;;;;;;7.65;63.61;100221.13;5031757;28;20162;-86
2020/12/31 02:12:32;;;;;;;6.55;6.15;;;;;;;7.57;63.33;100215.00;5048666;28;20506;-89
2020/12/31 02:14:58;;;;;;;6.68;6.28;;;;;;;7.58;63.44;100227.50;5035555;28;20021;-87
2020/12/31 02:17:23;;;;;;;7.03;6.57;;;;;;;7.70;63.59;100231.38;5050017;28;20036;-88
2020/12/31 02:19:49;;;;;;;11.20;10.60;;;;;;;7.78;63.55;100233.13;5047602;28;20391;-87
2020/12/31 02:22:14;;;;;;;12.90;12.05;;;;;;;7.71;63.75;100225.75;5042914;28;20036;-86
2020/12/31 02:24:41;;;;;;;12.57;11.88;;;;;;;7.79;63.72;100232.91;5049690;28;20029;-88
2020/12/31 02:27:06;;;;;;;6.00;5.60;;;;;;;7.80;63.77;100231.91;5046569;28;20525;-87
2020/12/31 02:29:32;;;;;;;6.72;6.25;;;;;;;7.78;63.68;100230.41;5029241;28;20095;-85
2020/12/31 02:31:57;;;;;;;10.48;9.98;;;;;;;7.81;63.75;100238.97;5028658;28;20029;-86
2020/12/31 02:34:25;;;;;;;11.43;10.73;;;;;;;7.82;63.74;100239.81;5047931;28;20025;-85
2020/12/31 02:36:51;;;;;;;8.65;8.02;;;;;;;7.80;63.74;100234.59;5047787;28;20494;-85
2020/12/31 02:39:17;;;;;;;11.32;10.73;;;;;;;7.85;63.64;100236.72;5046421;28;20418;-85
2020/12/31 02:41:42;;;;;;;7.75;7.05;;;;;;;7.81;63.83;100227.31;5046470;28;20044;-86
2020/12/31 02:44:08;;;;;;;7.00;6.45;;;;;;;7.89;63.96;100238.00;5029842;28;20033;-86
2020/12/31 02:46:34;;;;;;;10.20;9.48;;;;;;;7.83;63.75;100236.06;5046331;28;20028;-85
2020/12/31 02:48:59;;;;;;;8.77;8.18;;;;;;;7.76;63.68;100221.66;5048115;28;20033;-84
2020/12/31 02:51:25;;;;;;;7.88;7.13;;;;;;;7.85;63.55;100231.31;5041019;28;20032;-85
2020/12/31 02:53:50;;;;;;;9.38;8.80;;;;;;;7.81;63.59;100222.72;5049106;28;20064;-86
2020/12/31 02:56:21;;;;;;;9.38;8.57;;;;;;;7.88;63.72;100226.34;5045678;28;20059;-85
2020/12/31 02:58:47;;;;;;;8.35;7.75;;;;;;;7.87;63.72;100213.00;5045050;28;20141;-86
2020/12/31 03:01:14;;;;;;;6.60;6.10;;;;;;;7.85;63.75;100215.06;5048051;28;20032;-87
2020/12/31 03:03:39;;;;;;;6.32;5.82;;;;;;;7.87;63.78;100223.84;5045228;28;20032;-86
2020/12/31 03:06:08;;;;;;;7.22;6.72;;;;;;;7.87;63.63;100210.28;5047918;28;20036;-85
2020/12/31 03:08:35;;;;;;;8.07;7.53;;;;;;;7.79;63.58;100213.97;5044568;28;20036;-85
2020/12/31 03:11:01;;;;;;;8.60;7.78;;;;;;;7.79;63.65;100205.03;5047818;28;20047;-87
2020/12/31 03:13:27;;;;;;;8.82;8.18;;;;;;;7.71;63.76;100203.28;5028765;28;20030;-85
2020/12/31 03:15:54;;;;;;;11.00;9.77;;;;;;;7.75;63.72;100209.97;5047417;28;20100;-86
2020/12/31 03:18:19;;;;;;;9.13;8.35;;;;;;;7.63;63.80;100192.56;5051304;28;20033;-84
2020/12/31 03:20:51;;;;;;;12.98;12.05;;;;;;;7.69;63.84;100203.47;5044957;28;20469;-86
2020/12/31 03:23:17;;;;;;;13.32;12.20;;;;;;;7.70;63.86;100204.31;5048932;28;20024;-85
2020/12/31 03:25:43;;;;;;;11.82;10.77;;;;;;;7.67;64.00;100202.00;5062849;28;20041;-84
2020/12/31 03:28:09;;;;;;;14.07;12.82;;;;;;;7.57;63.94;100196.91;5049717;28;20040;-85
2020/12/31 03:30:36;;;;;;;20.90;19.40;;;;;;;7.52;64.09;100188.50;5050730;28;20490;-85
2020/12/31 03:33:02;;;;;;;16.48;15.18;;;;;;;7.58;64.23;100209.38;5034203;28;20395;-85
2020/12/31 03:35:28;;;;;;;16.10;14.85;;;;;;;7.52;64.00;100189.38;5066791;28;20020;-85
2020/12/31 03:37:54;;;;;;;12.20;10.98;;;;;;;7.54;64.04;100194.59;5032304;28;20025;-86
2020/12/31 03:40:20;;;;;;;12.73;11.55;;;;;;;7.58;64.08;100200.44;5055283;28;20074;-85
2020/12/31 03:42:45;;;;;;;12.35;11.20;;;;;;;7.56;64.10;100200.63;5034512;28;20024;-85
2020/12/31 03:45:11;;;;;;;14.85;13.43;;;;;;;7.52;64.14;100188.50;5045478;28;20033;-84
2020/12/31 03:47:36;;;;;;;16.20;14.82;;;;;;;7.53;64.19;100193.72;5048286;28;20036;-85
2020/12/31 03:50:06;;;;;;;13.07;11.77;;;;;;;7.58;64.15;100197.72;5047744;28;20094;-84
2020/12/31 03:52:31;;;;;;;14.32;13.02;;;;;;;7.58;64.17;100192.31;5042469;28;20029;-85
2020/12/31 03:54:57;;;;;;;16.27;14.88;;;;;;;7.56;64.25;100194.41;5050335;28;20044;-85
2020/12/31 03:57:22;;;;;;;15.55;14.25;;;;;;;7.55;64.18;100196.25;5031483;28;20044;-85
2020/12/31 03:59:48;;;;;;;17.98;16.42;;;;;;;7.53;64.26;100185.59;5047104;28;20068;-84
2020/12/31 04:02:13;;;;;;;15.80;14.45;;;;;;;7.53;64.42;100184.78;5050694;28;20028;-84
2020/12/31 04:04:39;;;;;;;18.75;17.17;;;;;;;7.44;64.60;100184.06;5049065;28;20054;-84
2020/12/31 04:07:04;;;;;;;14.43;13.02;;;;;;;7.49;64.29;100178.06;5049843;28;20398;-83
2020/12/31 04:09:30;;;;;;;11.73;10.55;;;;;;;7.50;64.25;100183.28;5045476;28;20498;-84
2020/12/31 04:11:55;;;;;;;10.27;9.38;;;;;;;7.51;64.08;100176.03;5050620;28;20067;-83
2020/12/31 04:14:21;;;;;;;16.33;14.88;;;;;;;7.49;64.09;100183.47;5050293;28;20825;-83
2020/12/31 04:16:46;;;;;;;16.83;15.52;;;;;;;7.52;64.18;100183.97;5047056;28;20037;-84
2020/12/31 04:19:12;;;;;;;14.93;13.68;;;;;;;7.49;64.17;100178.94;5050173;28;20451;-83
2020/12/31 04:21:37;;;;;;;12.82;11.82;;;;;;;7.48;64.18;100177.25;5031129;28;20151;-83
2020/12/31 04:24:02;;;;;;;12.95;11.55;;;;;;;7.50;64.23;100180.59;5049188;28;20033;-83
2020/12/31 04:26:28;;;;;;;10.20;9.32;;;;;;;7.45;64.22;100174.94;5049607;28;20037;-84
2020/12/31 04:28:53;;;;;;;14.07;12.98;;;;;;;7.34;64.12;100164.63;5048353;28;20068;-84
2020/12/31 04:31:19;;;;;;;15.25;14.00;;;;;;;7.46;64.21;100176.59;5048963;28;20037;-84
2020/12/31 04:33:44;;;;;;;10.52;9.63;;;;;;;7.47;64.18;100174.72;5050516;28;20041;-85
2020/12/31 04:36:09;;;;;;;14.13;12.82;;;;;;;7.41;64.23;100162.81;5050138;28;20391;-85
2020/12/31 04:38:35;;;;;;;15.63;14.32;;;;;;;7.44;64.40;100165.13;5046219;28;20110;-84
2020/12/31 04:41:03;;;;;;;12.52;11.43;;;;;;;7.49;64.14;100173.53;5042045;28;20049;-85
2020/12/31 04:43:30;;;;;;;11.88;10.70;;;;;;;7.43;64.38;100168.88;5050154;28;20106;-84
2020/12/31 04:45:56;;;;;;;14.82;13.63;;;;;;;7.45;64.37;100177.63;5049984;28;20039;-87
2020/12/31 04:48:37;;;;;;;13.50;11.40;;;;;;;7.42;64.50;100185.31;5050261;28;20028;-87
2020/12/31 04:51:06;;;;;;;12.02;10.93;;;;;;;7.28;64.63;100168.91;5049683;28;20474;-86
2020/12/31 04:53:32;;;;;;;12.52;11.23;;;;;;;7.47;64.49;100186.38;5049226;28;20028;-85
2020/12/31 04:56:01;;;;;;;18.02;16.42;;;;;;;7.33;64.48;100169.16;5049270;28;20140;-84
2020/12/31 04:58:26;;;;;;;13.68;12.48;;;;;;;7.53;64.65;100192.91;5046141;28;20025;-84
2020/12/31 05:00:52;;;;;;;16.58;14.98;;;;;;;7.50;64.49;100186.00;5048634;28;20029;-85
2020/12/31 05:03:17;;;;;;;17.42;15.93;;;;;;;7.60;64.47;100196.53;5047716;28;20029;-86
2020/12/31 05:05:44;;;;;;;13.38;12.25;;;;;;;7.48;64.60;100188.06;5046980;28;20037;-85
2020/12/31 05:08:10;;;;;;;10.43;9.63;;;;;;;7.40;64.67;100185.50;5043050;28;20033;-87
2020/12/31 05:10:35;;;;;;;5.15;4.80;;;;;;;7.49;64.29;100200.56;5052812;28;20044;-86
2020/12/31 05:13:03;;;;;;;9.32;8.68;;;;;;;7.38;64.36;100201.06;5048934;28;20048;-86
2020/12/31 05:15:36;;;;;;;6.32;6.00;;;;;;;7.49;64.10;100197.00;5050230;28;20646;-86
2020/12/31 05:18:27;;;;;;;6.90;6.45;;;;;;;7.50;64.34;100196.81;5049935;28;20037;-87
2020/12/31 05:20:54;;;;;;;5.45;5.20;;;;;;;7.46;64.08;100198.25;5050448;28;20041;-85
2020/12/31 05:23:21;;;;;;;4.43;4.00;;;;;;;7.44;64.13;100203.00;5050079;28;20040;-87
2020/12/31 05:25:47;;;;;;;5.90;5.55;;;;;;;7.42;63.96;100202.34;5047537;28;20029;-84
2020/12/31 05:28:34;;;;;;;4.32;3.88;;;;;;;7.44;63.96;100203.00;5032467;28;20116;-85
2020/12/31 05:31:08;;;;;;;6.88;6.45;;;;;;;7.42;63.90;100199.66;5052145;28;20530;-89
2020/12/31 05:33:36;;;;;;;4.82;3.35;;;;;;;7.34;63.86;100197.09;5043793;28;20021;-84
2020/12/31 05:36:25;;;;;;;7.97;7.57;;;;;;;7.43;63.99;100184.25;5046676;28;20361;-85
2020/12/31 05:38:56;;;;;;;9.38;8.80;;;;;;;7.42;63.82;100199.66;5043341;28;20338;-88
2020/12/31 05:41:22;;;;;;;;;;;;;;;7.33;63.62;100196.22;5049515;28;20399;-85
2020/12/31 05:43:53;;;;;;;10.77;10.10;;;;;;;7.25;63.47;100184.69;5038257;28;19921;-88
2020/12/31 05:46:19;;;;;;;6.50;6.15;;;;;;;7.27;63.55;100199.69;5031058;28;20442;-87
2020/12/31 05:48:53;;;;;;;10.10;9.50;;;;;;;7.23;63.60;100181.34;5051699;28;20020;-88
2020/12/31 05:51:20;;;;;;;11.02;10.43;;;;;;;7.33;63.55;100187.28;5048029;28;20024;-86
2020/12/31 05:53:50;;;;;;;7.65;7.10;;;;;;;7.30;63.63;100185.78;5047144;28;20483;-85
2020/12/31 05:56:18;;;;;;;10.35;9.75;;;;;;;7.26;63.48;100187.22;5047304;28;20021;-85
2020/12/31 05:58:45;;;;;;;7.20;6.90;;;;;;;7.29;63.65;100189.53;5046031;28;20375;-85
2020/12/31 06:01:12;;;;;;;8.80;8.40;;;;;;;7.29;63.57;100199.50;5043749;28;20041;-85
2020/12/31 06:03:46;;;;;;;8.60;8.20;;;;;;;7.35;63.68;100190.63;5046329;28;20558;-85
2020/12/31 06:06:17;;;;;;;7.32;6.93;;;;;;;7.33;63.47;100204.34;5046970;28;20029;-85
2020/12/31 06:08:54;;;;;;;6.15;5.85;;;;;;;7.25;63.81;100184.69;5045266;28;20116;-85
2020/12/31 06:11:29;;;;;;;9.68;9.18;;;;;;;7.40;63.68;100199.03;5054359;28;20021;-84
2020/12/31 06:13:56;;;;;;;6.78;6.47;;;;;;;7.35;63.61;100194.19;5048437;28;20025;-84
2020/12/31 06:16:25;;;;;;;7.22;6.88;;;;;;;7.43;63.52;100204.03;5048240;28;20051;-85
2020/12/31 06:19:00;;;;;;;4.28;4.07;;;;;;;7.35;63.90;100193.31;5047345;28;20048;-85
2020/12/31 06:21:43;;;;;;;6.35;6.13;;;;;;;7.35;63.69;100193.31;5049692;28;20140;-86
2020/12/31 06:24:12;;;;;;;8.93;8.32;;;;;;;7.35;63.73;100196.03;5045494;28;20168;-85
2020/12/31 06:26:40;;;;;;;8.75;8.35;;;;;;;7.42;63.75;100205.06;5048019;28;20108;-86
2020/12/31 06:29:06;;;;;;;11.35;10.50;;;;;;;7.39;63.84;100194.63;5032290;28;20487;-87
2020/12/31 06:31:32;;;;;;;6.78;6.47;;;;;;;7.29;63.59;100199.50;5047555;28;20047;-87
2020/12/31 06:33:58;;;;;;;4.72;4.43;;;;;;;7.30;63.77;100203.88;5048093;28;20472;-85
2020/12/31 06:36:32;;;;;;;5.63;5.28;;;;;;;7.26;64.20;100199.88;5046608;28;20379;-86
2020/12/31 06:38:57;;;;;;;5.53;5.32;;;;;;;7.21;63.77;100191.50;5047107;28;20132;-86
2020/12/31 06:41:37;;;;;;;6.05;5.80;;;;;;;7.14;63.93;100200.38;5046740;28;20044;-85
2020/12/31 06:44:09;;;;;;;5.75;5.45;;;;;;;7.14;63.95;100197.69;5049898;28;20098;-84
2020/12/31 06:46:38;;;;;;;;;;;;;;;7.09;63.88;100194.72;5047025;28;20035;-85
2020/12/31 06:49:03;;;;;;;5.22;5.03;;;;;;;7.08;63.82;100197.59;5045607;28;19997;-86
2020/12/31 06:51:29;;;;;;;13.55;12.85;;;;;;;7.01;63.85;100185.88;5048102;28;20418;-85
2020/12/31 06:53:54;;;;;;;6.47;6.18;;;;;;;7.03;63.97;100191.91;5053490;28;20036;-86
2020/12/31 06:56:39;;;;;;;10.57;10.07;;;;;;;7.04;63.94;100199.00;5027958;28;20044;-85
2020/12/31 06:59:25;;;;;;;6.82;6.53;;;;;;;7.01;64.27;100196.69;5029416;28;20024;-85
2020/12/31 07:01:51;;;;;;;5.63;5.35;;;;;;;6.96;63.79;100194.53;5045765;28;20043;-85
2020/12/31 07:04:30;;;;;;;5.93;5.72;;;;;;;6.92;63.83;100194.09;5045755;28;20021;-84
2020/12/31 07:07:00;;;;;;;4.65;4.35;;;;;;;6.87;63.89;100192.97;5043048;28;20028;-85
2020/12/31 07:09:35;;;;;;;8.35;7.95;;;;;;;6.84;63.91;100193.34;5031119;28;20036;-85
2020/12/31 07:12:05;;;;;;;7.32;6.80;;;;;;;6.85;63.87;100200.44;5044852;28;20074;-83
2020/12/31 07:14:32;;;;;;;6.47;6.10;;;;;;;6.76;64.26;100200.53;5045436;28;20036;-84
2020/12/31 07:16:59;;;;;;;8.70;7.90;;;;;;;6.73;64.14;100198.19;5037370;28;20047;-83
2020/12/31 07:19:51;;;;;;;6.45;6.15;;;;;;;6.74;64.32;100208.00;5047233;28;20033;-84
2020/12/31 07:22:19;;;;;;;11.85;11.25;;;;;;;6.70;64.41;100212.06;5045016;28;20047;-83
2020/12/31 07:24:56;;;;;;;7.90;7.50;;;;;;;6.65;64.45;100222.63;5045925;28;20056;-84
2020/12/31 07:27:26;;;;;;;10.35;9.75;;;;;;;6.67;64.41;100215.16;5036490;28;20036;-83
2020/12/31 07:30:18;;;;;;;7.70;7.15;;;;;;;6.61;64.27;100215.91;5046189;28;20437;-83
2020/12/31 07:32:53;;;;;;;;;;;;;;;6.60;64.30;100216.94;5042535;28;20028;-82
2020/12/31 07:35:38;;;;;;;9.68;9.18;;;;;;;6.62;64.30;100221.13;5055632;28;19966;-83
2020/12/31 07:38:14;;;;;;;12.48;11.77;;;;;;;6.55;64.09;100214.78;5044191;28;20028;-83
2020/12/31 07:40:41;;;;;;;11.35;10.77;;;;;;;6.49;64.05;100226.34;5044344;28;20059;-82
2020/12/31 07:43:09;;;;;;;8.10;7.70;;;;;;;6.49;64.07;100220.94;5041281;28;21327;-83
2020/12/31 07:45:35;;;;;;;14.45;13.65;;;;;;;6.50;64.08;100233.41;5047383;28;20021;-82
2020/12/31 07:48:00;;;;;;;10.13;9.57;;;;;;;6.50;64.18;100224.47;5041632;28;20044;-82
2020/12/31 07:50:27;;;;;;;15.68;14.80;;;;;;;6.49;64.17;100228.19;5044632;28;20029;-82
2020/12/31 07:52:53;;;;;;;12.98;12.27;;;;;;;6.48;64.10;100229.22;5048104;28;20033;-82
2020/12/31 07:55:19;;;;;;;11.77;11.18;;;;;;;6.48;64.23;100227.34;5045061;28;20064;-83
2020/12/31 07:57:44;;;;;;;9.45;8.85;;;;;;;6.47;64.26;100225.66;5034833;28;20076;-82
2020/12/31 08:00:18;;;;;;;14.07;13.18;;;;;;;6.51;64.14;100234.25;5044645;28;20619;-82
2020/12/31 08:02:49;;;;;;;12.00;11.20;;;;;;;6.42;64.09;100220.81;5043613;28;20816;-81
2020/12/31 08:05:16;;;;;;;13.73;12.82;;;;;;;6.40;63.87;100222.88;5055612;28;20493;-81
2020/12/31 08:07:43;;;;;;;22.52;21.13;;;;;;;6.37;63.91;100231.34;5044518;28;20037;-81
2020/12/31 08:10:10;;;;;;;18.98;17.80;;;;;;;6.42;64.02;100236.19;5045540;28;20028;-81
2020/12/31 08:12:38;;;;;;;26.30;24.67;;;;;;;6.41;64.21;100224.56;5045507;28;20033;-81
2020/12/31 08:15:04;;;;;;;18.05;16.75;;;;;;;6.37;64.27;100227.81;5060482;28;20074;-81
2020/12/31 08:17:30;;;;;;;18.52;17.33;;;;;;;6.39;64.20;100232.00;5047293;28;20438;-81
2020/12/31 08:19:55;;;;;;;20.15;18.75;;;;;;;6.41;64.45;100232.66;5049630;28;20152;-81
2020/12/31 08:22:40;;;;;;;13.82;12.73;;;;;;;6.49;64.28;100233.59;5046191;28;20053;-82
2020/12/31 08:25:14;;;;;;;16.83;15.57;;;;;;;6.48;64.49;100237.34;5050292;28;20029;-81
2020/12/31 08:27:41;;;;;;;17.40;16.13;;;;;;;6.49;64.25;100236.28;5047944;28;20510;-81
2020/12/31 08:30:09;;;;;;;19.33;17.85;;;;;;;6.52;64.12;100236.78;5029028;28;20025;-82
2020/12/31 08:32:51;;;;;;;17.88;16.50;;;;;;;6.52;64.25;100222.41;5049954;28;20037;-81
2020/12/31 08:35:22;;;;;;;15.65;14.48;;;;;;;6.62;64.12;100241.91;5040681;28;20436;-81
2020/12/31 08:38:00;;;;;;;15.45;14.20;;;;;;;6.62;64.18;100248.13;5048240;28;20340;-81
2020/12/31 08:40:25;;;;;;;14.70;13.48;;;;;;;6.87;64.00;100245.16;5045561;28;20048;-81
2020/12/31 08:42:54;;;;;;;12.10;10.90;;;;;;;7.59;64.16;100250.84;5049196;28;20475;-82
2020/12/31 08:45:31;;;;;;;16.33;14.82;;;;;;;8.92;63.01;100253.81;5030769;28;20029;-81
2020/12/31 08:48:14;;;;;;;18.48;16.88;;;;;;;10.46;61.23;100259.66;5046372;28;20056;-82
2020/12/31 08:50:40;;;;;;;19.80;16.90;;;;;;;11.70;58.68;100254.25;5051098;28;20037;-82
2020/12/31 08:53:06;;;;;;;17.50;15.68;;;;;;;12.67;55.55;100246.59;5047932;28;20085;-82
2020/12/31 08:55:36;;;;;;;15.77;14.27;;;;;;;13.52;52.56;100253.19;5047576;28;20100;-82
2020/12/31 08:58:12;;;;;;;16.87;15.37;;;;;;;14.07;47.71;100251.34;5043202;28;20032;-83
2020/12/31 09:00:37;;;;;;;13.27;12.18;;;;;;;13.28;47.74;100251.38;5048611;28;20562;-82
2020/12/31 09:03:03;;;;;;;11.35;10.45;;;;;;;12.28;49.14;100255.94;5037917;28;20040;-83
2020/12/31 09:05:28;;;;;;;9.50;8.60;;;;;;;11.39;52.14;100253.97;5047815;28;20037;-82
2020/12/31 09:08:03;;;;;;;12.55;11.45;;;;;;;10.70;53.84;100253.53;5049784;28;20048;-83
2020/12/31 09:10:32;;;;;;;11.77;10.68;;;;;;;10.06;54.54;100246.88;5042750;28;20162;-83
2020/12/31 09:12:57;;;;;;;12.80;11.57;;;;;;;9.65;56.21;100259.56;5048746;28;20112;-82
2020/12/31 09:15:23;;;;;;;12.55;11.48;;;;;;;9.41;56.98;100262.81;5032122;28;20494;-83
2020/12/31 09:17:48;;;;;;;13.40;11.15;;;;;;;9.27;57.81;100268.19;5031440;28;20036;-83
2020/12/31 09:20:19;;;;;;;16.70;12.48;;;;;;;9.17;58.09;100267.72;5048280;28;20534;-83
2020/12/31 09:22:45;;;;;;;15.52;14.00;;;;;;;9.12;58.51;100268.31;5047334;28;20036;-82
2020/12/31 09:25:11;;;;;;;16.13;14.52;;;;;;;9.03;58.67;100268.69;5049704;28;20025;-83
2020/12/31 09:27:38;;;;;;;18.92;15.00;;;;;;;8.96;59.00;100264.06;5044359;28;20152;-82
2020/12/31 09:30:06;;;;;;;19.92;17.08;;;;;;;8.86;59.27;100265.47;5043696;28;20068;-82
2020/12/31 09:32:31;;;;;;;23.60;21.23;;;;;;;8.74;59.45;100260.59;5044724;28;20072;-82
2020/12/31 09:34:57;;;;;;;24.65;20.42;;;;;;;8.63;60.14;100276.56;5045550;28;20060;-83
2020/12/31 09:37:23;;;;;;;19.75;17.50;;;;;;;8.56;60.00;100266.53;5044881;28;20025;-82
2020/12/31 09:39:48;;;;;;;22.38;18.50;;;;;;;8.48;60.07;100269.38;5038783;28;20140;-81
2020/12/31 09:42:13;;;;;;;22.58;18.42;;;;;;;8.46;60.33;100284.16;5041479;28;20040;-82
2020/12/31 09:44:39;;;;;;;25.13;20.58;;;;;;;8.33;60.47;100280.28;5044704;28;20033;-82
2020/12/31 09:47:05;;;;;;;23.58;19.15;;;;;;;8.39;60.57;100282.19;5045923;28;20108;-82
2020/12/31 09:49:31;;;;;;;24.77;20.17;;;;;;;8.40;60.63;100286.59;5041932;28;20041;-83
2020/12/31 09:51:56;;;;;;;28.42;23.25;;;;;;;8.36;60.92;100292.59;5044082;28;20033;-82
2020/12/31 09:54:22;;;;;;;24.73;20.95;;;;;;;8.38;61.23;100287.81;5042413;28;20047;-81
2020/12/31 09:56:47;;;;;;;26.27;23.42;;;;;;;8.43;61.06;100288.06;5047192;28;20531;-82
2020/12/31 09:59:13;;;;;;;29.48;23.52;;;;;;;8.47;60.96;100286.69;5045051;28;20040;-82
2020/12/31 10:01:38;;;;;;;29.23;23.33;;;;;;;8.53;61.00;100295.91;5043483;28;20060;-82
2020/12/31 10:04:04;;;;;;;32.05;25.67;;;;;;;8.57;61.34;100297.16;5045564;28;20037;-82
2020/12/31 10:06:29;;;;;;;33.67;27.80;;;;;;;8.62;61.17;100296.56;5048677;28;20029;-82
2020/12/31 10:08:55;;;;;;;32.70;27.15;;;;;;;8.63;61.42;100295.53;5046071;28;20426;-82
2020/12/31 10:11:20;;;;;;;32.28;27.35;;;;;;;8.65;61.42;100304.31;5040007;28;20033;-82
2020/12/31 10:13:46;;;;;;;32.38;28.33;;;;;;;8.64;61.53;100294.53;5045691;28;20040;-82
2020/12/31 10:16:12;;;;;;;34.53;29.60;;;;;;;8.76;61.59;100304.59;5046972;28;20079;-82
2020/12/31 10:18:37;;;;;;;36.42;29.20;;;;;;;8.77;61.82;100302.72;5046537;28;20612;-81
2020/12/31 10:21:02;;;;;;;33.65;28.40;;;;;;;8.76;61.72;100307.31;5039328;28;20045;-82
2020/12/31 10:23:28;;;;;;;39.00;33.15;;;;;;;8.65;61.66;100296.19;5028769;28;20024;-82
2020/12/31 10:25:54;;;;;;;38.28;30.00;;;;;;;8.74;61.73;100303.13;5043394;28;20040;-82
2020/12/31 10:28:20;;;;;;;36.15;30.30;;;;;;;8.78;61.71;100305.25;5046033;28;20052;-81
2020/12/31 10:30:46;;;;;;;37.75;29.52;;;;;;;8.90;61.78;100300.13;5035548;28;20098;-82
2020/12/31 10:33:11;;;;;;;34.25;29.05;;;;;;;9.11;61.92;100304.63;5046759;28;20032;-82
2020/12/31 10:35:37;;;;;;;42.08;35.35;;;;;;;9.71;61.85;100300.50;5029037;28;20040;-83
2020/12/31 10:38:03;;;;;;;39.08;34.40;;;;;;;10.02;61.29;100298.06;5027909;28;20040;-83
2020/12/31 10:40:28;;;;;;;44.17;36.05;;;;;;;10.02;60.46;100298.06;5041846;28;20092;-82
2020/12/31 10:42:53;;;;;;;38.65;29.52;;;;;;;10.09;60.40;100297.25;5041683;28;20090;-83
2020/12/31 10:45:19;;;;;;;39.03;33.00;;;;;;;10.10;60.46;100294.31;5043660;28;20479;-83
2020/12/31 10:47:44;;;;;;;36.03;31.33;;;;;;;10.33;60.72;100302.13;5041403;28;20048;-82
2020/12/31 10:50:09;;;;;;;37.60;31.13;;;;;;;10.58;60.13;100290.59;5045525;28;20376;-83
2020/12/31 10:52:35;;;;;;;36.70;31.25;;;;;;;10.63;59.70;100285.38;5041251;28;20053;-83
2020/12/31 10:55:00;;;;;;;38.47;32.83;;;;;;;10.75;59.56;100300.00;5044422;28;20734;-83
2020/12/31 10:57:26;;;;;;;39.85;34.58;;;;;;;10.74;59.56;100300.22;5043143;28;20554;-83
2020/12/31 10:59:52;;;;;;;42.65;36.40;;;;;;;10.41;59.01;100278.47;5046846;28;20033;-82
2020/12/31 11:02:17;;;;;;;40.13;30.63;;;;;;;10.61;59.84;100295.59;5042035;28;20057;-84
2020/12/31 11:04:43;;;;;;;37.13;30.83;;;;;;;10.97;59.48;100299.75;5053832;28;20392;-83
2020/12/31 11:07:09;;;;;;;38.88;30.75;;;;;;;11.25;58.53;100296.75;5045109;28;20033;-81
2020/12/31 11:09:34;;;;;;;34.42;28.45;;;;;;;11.62;57.87;100299.72;5039906;28;20033;-82
2020/12/31 11:12:00;;;;;;;34.35;28.27;;;;;;;11.43;56.79;100298.78;5043861;28;20021;-83
2020/12/31 11:14:25;;;;;;;34.33;28.20;;;;;;;11.40;57.28;100293.75;5040427;28;20443;-83
2020/12/31 11:16:51;;;;;;;31.88;26.08;;;;;;;11.35;57.69;100307.16;5044457;28;20040;-83
2020/12/31 11:19:16;;;;;;;30.83;24.98;;;;;;;11.01;57.53;100290.09;5043489;28;20041;-82
2020/12/31 11:21:42;;;;;;;27.05;22.23;;;;;;;10.90;58.04;100298.91;5023714;28;20090;-83
2020/12/31 11:24:07;;;;;;;29.25;24.38;;;;;;;10.67;58.15;100289.31;5040076;28;20512;-83
2020/12/31 11:26:33;;;;;;;29.33;22.55;;;;;;;10.59;58.58;100297.69;5042410;28;20071;-83